createdAt,value
2022-08-27T00:00:17.857Z,18.83
2022-08-27T00:02:45.731Z,18.78
2022-08-27T00:05:14.637Z,18.69
2022-08-27T00:07:42.768Z,18.71
2022-08-27T00:10:14.957Z,18.72
2022-08-27T00:12:41.801Z,18.75
2022-08-27T00:15:09.168Z,18.76
2022-08-27T00:17:38.622Z,18.77
2022-08-27T00:20:07.364Z,18.79
2022-08-27T00:22:34.596Z,18.77
2022-08-27T00:25:01.492Z,18.79
2022-08-27T00:27:28.088Z,18.79
2022-08-27T00:29:54.865Z,18.80
2022-08-27T00:32:21.527Z,18.80
2022-08-27T00:34:48.146Z,18.80
2022-08-27T00:37:14.976Z,18.79
2022-08-27T00:39:41.597Z,18.76
2022-08-27T00:42:08.186Z,18.71
2022-08-27T00:44:35.518Z,18.69
2022-08-27T00:47:05.921Z,18.67
2022-08-27T00:49:40.679Z,18.66
2022-08-27T00:52:21.997Z,18.63
2022-08-27T00:54:52.241Z,18.60
2022-08-27T00:57:19.260Z,18.55
2022-08-27T00:59:46.049Z,18.54
2022-08-27T01:02:19.102Z,18.53
2022-08-27T01:05:15.319Z,18.51
2022-08-27T01:07:45.531Z,18.46
2022-08-27T01:10:16.753Z,18.42
2022-08-27T01:12:43.873Z,18.36
2022-08-27T01:15:19.797Z,18.35
2022-08-27T01:17:48.425Z,18.32
2022-08-27T01:20:22.477Z,18.25
2022-08-27T01:22:49.009Z,18.28
2022-08-27T01:25:18.123Z,18.27
2022-08-27T01:27:47.246Z,18.24
2022-08-27T01:30:17.509Z,18.22
2022-08-27T01:32:45.512Z,18.22
2022-08-27T01:35:14.861Z,18.24
2022-08-27T01:37:43.760Z,18.23
2022-08-27T01:40:13.536Z,18.25
2022-08-27T01:42:46.349Z,18.25
2022-08-27T01:45:40.148Z,18.27
2022-08-27T01:48:08.201Z,18.26
2022-08-27T01:50:37.639Z,18.20
2022-08-27T01:53:14.564Z,18.22
2022-08-27T01:55:43.440Z,18.23
2022-08-27T01:58:15.635Z,18.22
2022-08-27T02:00:45.173Z,18.24
2022-08-27T02:03:12.425Z,18.25
2022-08-27T02:05:45.034Z,18.27
2022-08-27T02:08:15.645Z,18.27
2022-08-27T02:10:44.665Z,18.27
2022-08-27T02:13:13.325Z,18.28
2022-08-27T02:15:41.850Z,18.22
2022-08-27T02:18:10.549Z,18.26
2022-08-27T02:20:37.471Z,18.20
2022-08-27T02:23:04.783Z,18.20
2022-08-27T02:25:31.704Z,18.25
2022-08-27T02:28:00.265Z,18.29
2022-08-27T02:30:29.550Z,18.19
2022-08-27T02:32:56.192Z,18.23
2022-08-27T02:35:24.614Z,18.26
2022-08-27T02:37:51.822Z,18.28
2022-08-27T02:40:22.408Z,18.30
2022-08-27T02:42:49.902Z,18.31
2022-08-27T02:45:18.200Z,18.30
2022-08-27T02:47:45.218Z,18.31
2022-08-27T02:50:13.480Z,18.31
2022-08-27T02:52:40.489Z,18.33
2022-08-27T02:55:07.520Z,18.33
2022-08-27T02:57:37.229Z,18.20
2022-08-27T03:00:12.202Z,18.24
2022-08-27T03:02:39.186Z,18.23
2022-08-27T03:05:11.953Z,18.21
2022-08-27T03:07:38.584Z,18.21
2022-08-27T03:10:06.552Z,18.18
2022-08-27T03:12:36.044Z,18.17
2022-08-27T03:15:12.024Z,18.10
2022-08-27T03:17:57.342Z,18.10
2022-08-27T03:20:25.852Z,18.10
2022-08-27T03:22:52.939Z,18.11
2022-08-27T03:25:20.239Z,18.09
2022-08-27T03:27:47.059Z,18.04
2022-08-27T03:30:20.057Z,17.98
2022-08-27T03:32:47.038Z,17.99
2022-08-27T03:35:14.810Z,17.90
2022-08-27T03:37:41.757Z,17.88
2022-08-27T03:40:09.217Z,17.88
2022-08-27T03:42:36.461Z,17.84
2022-08-27T03:45:03.825Z,17.85
2022-08-27T03:47:33.788Z,17.84
2022-08-27T03:50:00.757Z,17.83
2022-08-27T03:52:28.821Z,17.86
2022-08-27T03:54:55.450Z,17.92
2022-08-27T03:57:22.070Z,17.96
2022-08-27T03:59:48.659Z,18.00
2022-08-27T04:02:20.914Z,18.00
2022-08-27T04:04:47.510Z,17.91
2022-08-27T04:07:14.106Z,17.94
2022-08-27T04:09:40.764Z,17.98
2022-08-27T04:12:07.563Z,18.03
2022-08-27T04:14:34.668Z,18.07
2022-08-27T04:17:01.360Z,18.10
2022-08-27T04:19:28.691Z,18.04
2022-08-27T04:22:00.353Z,18.03
2022-08-27T04:24:27.231Z,18.02
2022-08-27T04:26:53.828Z,18.00
2022-08-27T04:29:20.433Z,18.01
2022-08-27T04:31:47.412Z,18.01
2022-08-27T04:34:14.005Z,17.91
2022-08-27T04:36:40.604Z,17.89
2022-08-27T04:39:07.241Z,17.92
2022-08-27T04:41:34.264Z,17.88
2022-08-27T04:44:08.829Z,17.90
2022-08-27T04:46:40.802Z,17.88
2022-08-27T04:49:15.330Z,17.91
2022-08-27T04:51:43.024Z,17.86
2022-08-27T04:54:10.820Z,17.91
2022-08-27T04:56:38.352Z,17.95
2022-08-27T04:59:08.163Z,17.96
2022-08-27T05:01:36.103Z,17.95
2022-08-27T05:04:03.104Z,17.95
2022-08-27T05:06:30.449Z,17.96
2022-08-27T05:08:57.202Z,17.97
2022-08-27T05:11:27.161Z,18.01
2022-08-27T05:13:54.230Z,18.03
2022-08-27T05:16:23.418Z,17.93
2022-08-27T05:18:51.882Z,17.90
2022-08-27T05:21:20.553Z,17.97
2022-08-27T05:23:50.156Z,17.98
2022-08-27T05:26:17.117Z,17.99
2022-08-27T05:28:44.244Z,17.99
2022-08-27T05:31:12.707Z,17.99
2022-08-27T05:33:40.798Z,17.99
2022-08-27T05:36:14.732Z,18.03
2022-08-27T05:38:42.582Z,18.04
2022-08-27T05:41:11.877Z,18.03
2022-08-27T05:43:41.320Z,18.03
2022-08-27T05:46:10.927Z,18.04
2022-08-27T05:48:39.581Z,18.02
2022-08-27T05:51:25.464Z,17.91
2022-08-27T05:53:58.379Z,17.88
2022-08-27T05:56:30.318Z,17.86
2022-08-27T05:59:15.521Z,17.92
2022-08-27T06:01:45.872Z,17.95
2022-08-27T06:04:17.904Z,18.01
2022-08-27T06:06:46.406Z,18.07
2022-08-27T06:09:18.745Z,18.13
2022-08-27T06:11:46.480Z,18.17
2022-08-27T06:14:13.237Z,18.22
2022-08-27T06:16:40.593Z,18.29
2022-08-27T06:19:09.422Z,18.25
2022-08-27T06:21:36.058Z,18.24
2022-08-27T06:24:02.888Z,18.41
2022-08-27T06:26:29.961Z,18.60
2022-08-27T06:28:57.025Z,18.76
2022-08-27T06:31:26.970Z,18.84
2022-08-27T06:33:58.522Z,18.78
2022-08-27T06:36:30.700Z,18.90
2022-08-27T06:38:57.825Z,18.95
2022-08-27T06:41:27.547Z,18.93
2022-08-27T06:43:56.597Z,18.86
2022-08-27T06:46:26.060Z,18.76
2022-08-27T06:48:55.732Z,18.77
2022-08-27T06:51:26.318Z,18.79
2022-08-27T06:53:54.857Z,18.85
2022-08-27T06:56:22.335Z,18.86
2022-08-27T06:58:53.474Z,18.87
2022-08-27T07:01:25.130Z,19.00
2022-08-27T07:03:54.841Z,19.04
2022-08-27T07:06:25.532Z,19.12
2022-08-27T07:08:53.196Z,19.22
2022-08-27T07:11:21.460Z,19.38
2022-08-27T07:13:49.595Z,19.48
2022-08-27T07:16:23.273Z,19.38
2022-08-27T07:18:52.747Z,19.42
2022-08-27T07:21:20.812Z,19.47
2022-08-27T07:23:48.705Z,19.57
2022-08-27T07:26:16.588Z,19.67
2022-08-27T07:28:44.504Z,19.58
2022-08-27T07:31:13.709Z,19.69
2022-08-27T07:33:51.406Z,19.76
2022-08-27T07:36:21.206Z,19.83
2022-08-27T07:39:01.195Z,19.79
2022-08-27T07:41:31.945Z,19.81
2022-08-27T07:44:18.765Z,19.94
2022-08-27T07:46:47.880Z,20.15
2022-08-27T07:49:19.308Z,20.28
2022-08-27T07:51:46.321Z,20.32
2022-08-27T07:54:14.432Z,20.41
2022-08-27T07:56:41.679Z,20.58
2022-08-27T07:59:08.923Z,20.56
2022-08-27T08:01:36.019Z,20.57
2022-08-27T08:04:03.251Z,20.67
2022-08-27T08:06:29.940Z,20.76
2022-08-27T08:08:56.625Z,20.76
2022-08-27T08:11:23.316Z,20.67
2022-08-27T08:13:49.987Z,20.78
2022-08-27T08:16:17.194Z,20.85
2022-08-27T08:18:43.897Z,20.89
2022-08-27T08:21:13.233Z,20.96
2022-08-27T08:23:41.646Z,21.03
2022-08-27T08:26:09.249Z,20.91
2022-08-27T08:28:37.102Z,20.94
2022-08-27T08:31:05.112Z,21.11
2022-08-27T08:33:32.876Z,21.20
2022-08-27T08:36:10.079Z,21.13
2022-08-27T08:38:44.756Z,21.08
2022-08-27T08:41:40.681Z,21.02
2022-08-27T08:44:19.720Z,20.98
2022-08-27T08:46:59.457Z,20.97
2022-08-27T08:49:53.591Z,21.02
2022-08-27T08:52:37.267Z,21.01
2022-08-27T08:55:13.175Z,21.07
2022-08-27T08:57:49.061Z,21.12
2022-08-27T09:00:16.765Z,21.01
2022-08-27T09:02:50.988Z,21.06
2022-08-27T09:05:17.744Z,21.05
2022-08-27T09:08:15.112Z,20.97
2022-08-27T09:10:59.954Z,20.92
2022-08-27T09:13:42.309Z,20.92
2022-08-27T09:16:09.380Z,20.95
2022-08-27T09:18:41.760Z,20.80
2022-08-27T09:21:30.373Z,20.84
2022-08-27T09:24:25.550Z,20.88
2022-08-27T09:26:52.778Z,20.86
2022-08-27T09:29:25.322Z,20.92
2022-08-27T09:31:59.514Z,20.94
2022-08-27T09:34:33.687Z,20.99
2022-08-27T09:37:08.161Z,20.98
2022-08-27T09:39:40.241Z,21.01
2022-08-27T09:42:24.498Z,21.07
2022-08-27T09:44:54.679Z,21.13
2022-08-27T09:47:21.453Z,21.28
2022-08-27T09:49:48.213Z,21.28
2022-08-27T09:52:37.736Z,21.35
2022-08-27T09:55:05.520Z,21.57
2022-08-27T09:57:40.707Z,21.54
2022-08-27T10:00:15.232Z,21.70
2022-08-27T10:02:57.722Z,21.55
2022-08-27T10:05:32.847Z,21.50
2022-08-27T10:08:03.517Z,21.72
2022-08-27T10:10:42.294Z,21.95
2022-08-27T10:13:14.152Z,22.03
2022-08-27T10:15:49.420Z,22.03
2022-08-27T10:18:31.981Z,21.73
2022-08-27T10:21:46.406Z,21.81
2022-08-27T10:24:31.456Z,21.93
2022-08-27T10:27:24.181Z,21.87
2022-08-27T10:30:08.467Z,21.93
2022-08-27T10:32:57.704Z,21.79
2022-08-27T10:35:59.748Z,21.82
2022-08-27T10:38:44.852Z,21.76
2022-08-27T10:41:28.623Z,21.73
2022-08-27T10:44:16.961Z,21.67
2022-08-27T10:47:11.433Z,21.68
2022-08-27T10:50:00.470Z,21.78
2022-08-27T10:52:34.472Z,21.85
2022-08-27T10:55:10.375Z,21.93
2022-08-27T10:58:00.119Z,21.97
2022-08-27T11:01:01.912Z,22.03
2022-08-27T11:03:39.649Z,22.20
2022-08-27T11:06:33.805Z,22.21
2022-08-27T11:09:11.475Z,22.31
2022-08-27T11:14:52.946Z,22.57
2022-08-27T11:17:38.285Z,22.63
2022-08-27T11:20:19.001Z,22.72
2022-08-27T11:22:49.397Z,22.94
2022-08-27T11:25:53.211Z,23.10
2022-08-27T11:28:30.025Z,23.09
2022-08-27T11:31:04.550Z,23.19
2022-08-27T11:34:03.469Z,23.34
2022-08-27T11:36:39.157Z,23.50
2022-08-27T11:39:27.915Z,23.64
2022-08-27T11:42:22.248Z,23.76
2022-08-27T11:44:54.376Z,23.94
2022-08-27T11:47:28.128Z,24.12
2022-08-27T11:49:58.425Z,24.20
2022-08-27T11:52:40.265Z,24.22
2022-08-27T11:55:14.585Z,24.01
2022-08-27T11:57:41.750Z,24.13
2022-08-27T12:00:26.613Z,24.17
2022-08-27T12:03:09.361Z,24.17
2022-08-27T12:05:41.084Z,24.18
2022-08-27T12:08:16.896Z,24.13
2022-08-27T12:10:51.828Z,24.12
2022-08-27T12:13:54.487Z,24.04
2022-08-27T12:16:25.972Z,24.06
2022-08-27T12:19:30.120Z,24.00
2022-08-27T12:22:11.452Z,23.92
2022-08-27T12:24:41.081Z,23.94
2022-08-27T12:27:31.974Z,24.03
2022-08-27T12:29:59.963Z,24.05
2022-08-27T12:32:46.978Z,24.00
2022-08-27T12:35:23.423Z,23.97
2022-08-27T12:37:57.664Z,23.98
2022-08-27T12:40:46.338Z,24.00
2022-08-27T12:43:24.828Z,23.96
2022-08-27T12:45:57.523Z,23.98
2022-08-27T12:48:28.063Z,24.01
2022-08-27T12:51:01.601Z,24.01
2022-08-27T12:53:52.999Z,24.00
2022-08-27T12:56:48.535Z,23.88
2022-08-27T12:59:46.413Z,23.98
2022-08-27T13:02:46.347Z,24.01
2022-08-27T13:05:13.595Z,24.03
2022-08-27T13:07:44.733Z,24.02
2022-08-27T13:10:16.612Z,24.05
2022-08-27T13:12:44.624Z,23.85
2022-08-27T13:15:15.731Z,23.86
2022-08-27T13:17:46.518Z,23.86
2022-08-27T13:20:23.748Z,23.84
2022-08-27T13:22:52.504Z,23.80
2022-08-27T13:25:31.024Z,23.85
2022-08-27T13:28:19.933Z,23.98
2022-08-27T13:30:47.988Z,24.12
2022-08-27T13:33:30.062Z,24.21
2022-08-27T13:35:58.254Z,24.34
2022-08-27T13:38:28.892Z,24.28
2022-08-27T13:41:05.932Z,24.44
2022-08-27T13:43:38.280Z,24.41
2022-08-27T13:46:09.181Z,24.45
2022-08-27T13:48:36.198Z,24.50
2022-08-27T13:51:03.240Z,24.56
2022-08-27T13:56:47.977Z,24.65
2022-08-27T13:59:22.244Z,24.63
2022-08-27T14:02:00.558Z,24.62
2022-08-27T14:04:42.936Z,24.42
2022-08-27T14:07:14.540Z,24.37
2022-08-27T14:09:54.389Z,24.26
2022-08-27T14:12:32.823Z,24.13
2022-08-27T14:15:23.908Z,23.94
2022-08-27T14:17:51.177Z,23.93
2022-08-27T14:20:19.348Z,23.95
2022-08-27T14:22:47.072Z,23.87
2022-08-27T14:25:14.902Z,23.76
2022-08-27T14:27:45.056Z,23.72
2022-08-27T14:30:24.602Z,23.69
2022-08-27T14:32:58.504Z,23.67
2022-08-27T14:35:25.808Z,23.70
2022-08-27T14:37:52.610Z,23.66
2022-08-27T14:40:19.637Z,23.67
2022-08-27T14:42:46.626Z,23.68
2022-08-27T14:45:13.337Z,23.68
2022-08-27T14:47:42.442Z,23.64
2022-08-27T14:50:13.921Z,23.64
2022-08-27T14:52:40.989Z,23.67
2022-08-27T14:55:10.865Z,23.53
2022-08-27T14:57:38.688Z,23.49
2022-08-27T15:00:07.716Z,23.47
2022-08-27T15:02:44.505Z,23.48
2022-08-27T15:05:16.216Z,23.42
2022-08-27T15:07:45.635Z,23.48
2022-08-27T15:10:14.571Z,23.53
2022-08-27T15:12:41.700Z,23.59
2022-08-27T15:15:10.408Z,23.60
2022-08-27T15:17:37.861Z,23.47
2022-08-27T15:20:08.619Z,23.41
2022-08-27T15:22:44.165Z,23.49
2022-08-27T15:25:12.208Z,23.50
2022-08-27T15:27:39.354Z,23.55
2022-08-27T15:30:09.996Z,23.50
2022-08-27T15:32:40.284Z,23.53
2022-08-27T15:35:12.395Z,23.49
2022-08-27T15:37:39.464Z,23.38
2022-08-27T15:40:06.932Z,23.29
2022-08-27T15:42:33.961Z,23.15
2022-08-27T15:45:00.645Z,23.17
2022-08-27T15:47:27.266Z,23.03
2022-08-27T15:49:53.897Z,22.81
2022-08-27T15:52:23.297Z,22.77
2022-08-27T15:54:51.313Z,22.77
2022-08-27T15:57:20.429Z,22.65
2022-08-27T15:59:47.482Z,22.45
2022-08-27T16:02:20.590Z,22.17
2022-08-27T16:04:49.190Z,22.21
2022-08-27T16:07:17.809Z,22.09
2022-08-27T16:09:48.110Z,22.09
2022-08-27T16:12:26.785Z,22.07
2022-08-27T16:14:54.676Z,22.16
2022-08-27T16:17:21.637Z,22.31
2022-08-27T16:19:48.462Z,22.43
2022-08-27T16:22:16.312Z,22.42
2022-08-27T16:24:43.020Z,22.39
2022-08-27T16:27:10.037Z,22.30
2022-08-27T16:29:37.185Z,22.18
2022-08-27T16:32:04.533Z,22.22
2022-08-27T16:34:32.165Z,22.15
2022-08-27T16:37:00.061Z,22.08
2022-08-27T16:39:31.759Z,21.98
2022-08-27T16:41:59.926Z,21.98
2022-08-27T16:44:26.788Z,21.94
2022-08-27T16:46:53.528Z,21.96
2022-08-27T16:49:39.769Z,21.86
2022-08-27T16:52:07.389Z,21.73
2022-08-27T16:54:34.798Z,21.66
2022-08-27T16:57:01.597Z,21.57
2022-08-27T16:59:28.176Z,21.50
2022-08-27T17:01:56.695Z,21.46
2022-08-27T17:04:30.289Z,21.45
2022-08-27T17:06:59.110Z,21.35
2022-08-27T17:09:26.158Z,21.31
2022-08-27T17:11:57.793Z,21.23
2022-08-27T17:14:24.737Z,21.14
2022-08-27T17:16:54.148Z,21.10
2022-08-27T17:19:24.389Z,20.98
2022-08-27T17:21:52.434Z,20.96
2022-08-27T17:24:19.194Z,20.97
2022-08-27T17:26:45.844Z,20.86
2022-08-27T17:29:12.622Z,20.86
2022-08-27T17:31:42.383Z,20.86
2022-08-27T17:34:16.534Z,20.74
2022-08-27T17:36:44.196Z,20.64
2022-08-27T17:39:11.635Z,20.46
2022-08-27T17:41:41.634Z,20.37
2022-08-27T17:44:28.194Z,20.21
2022-08-27T17:46:57.601Z,20.18
2022-08-27T17:49:25.555Z,20.06
2022-08-27T17:51:57.280Z,20.00
2022-08-27T17:54:38.678Z,19.93
2022-08-27T17:57:17.381Z,19.85
2022-08-27T17:59:44.966Z,19.74
2022-08-27T18:02:18.917Z,19.73
2022-08-27T18:04:45.661Z,19.54
2022-08-27T18:07:12.372Z,19.51
2022-08-27T18:09:39.940Z,19.39
2022-08-27T18:12:07.612Z,19.29
2022-08-27T18:14:35.724Z,19.21
2022-08-27T18:17:02.681Z,19.06
2022-08-27T18:19:29.531Z,19.00
2022-08-27T18:21:56.152Z,18.98
2022-08-27T18:24:22.811Z,18.97
2022-08-27T18:26:49.679Z,18.95
2022-08-27T18:29:16.716Z,18.84
2022-08-27T18:31:44.134Z,18.69
2022-08-27T18:34:10.798Z,18.55
2022-08-27T18:36:37.641Z,18.49
2022-08-27T18:39:04.354Z,18.51
2022-08-27T18:41:31.997Z,18.52
2022-08-27T18:44:00.692Z,18.53
2022-08-27T18:46:27.515Z,18.47
2022-08-27T18:48:54.144Z,18.40
2022-08-27T18:51:21.061Z,18.36
2022-08-27T18:53:48.716Z,18.19
2022-08-27T18:56:20.045Z,18.10
2022-08-27T18:58:47.496Z,18.07
2022-08-27T19:01:22.720Z,18.04
2022-08-27T19:03:52.259Z,18.00
2022-08-27T19:06:21.221Z,17.95
2022-08-27T19:08:52.620Z,17.85
2022-08-27T19:11:20.252Z,17.80
2022-08-27T19:13:50.444Z,17.76
2022-08-27T19:16:24.098Z,17.76
2022-08-27T19:18:54.272Z,17.72
2022-08-27T19:21:20.954Z,17.70
2022-08-27T19:23:50.737Z,17.62
2022-08-27T19:26:23.617Z,17.61
2022-08-27T19:28:50.245Z,17.58
2022-08-27T19:31:17.052Z,17.53
2022-08-27T19:33:44.532Z,17.54
2022-08-27T19:36:15.772Z,17.50
2022-08-27T19:38:43.910Z,17.42
2022-08-27T19:41:11.208Z,17.42
2022-08-27T19:43:37.889Z,17.37
2022-08-27T19:46:05.408Z,17.34
2022-08-27T19:48:34.201Z,17.35
2022-08-27T19:51:01.153Z,17.28
2022-08-27T19:53:27.838Z,17.29
2022-08-27T19:55:54.580Z,17.28
2022-08-27T19:58:21.420Z,17.26
2022-08-27T20:00:48.941Z,17.24
2022-08-27T20:03:16.231Z,17.19
2022-08-27T20:05:45.152Z,17.12
2022-08-27T20:08:12.593Z,17.08
2022-08-27T20:10:40.226Z,17.09
2022-08-27T20:13:07.901Z,17.10
2022-08-27T20:15:35.718Z,17.01
2022-08-27T20:18:03.993Z,16.99
2022-08-27T20:20:31.778Z,16.95
2022-08-27T20:22:59.882Z,16.95
2022-08-27T20:25:26.589Z,16.90
2022-08-27T20:27:53.336Z,16.88
2022-08-27T20:30:23.125Z,16.86
2022-08-27T20:32:49.865Z,16.88
2022-08-27T20:35:17.885Z,16.88
2022-08-27T20:37:46.147Z,16.86
2022-08-27T20:40:18.220Z,16.80
2022-08-27T20:42:44.990Z,16.74
2022-08-27T20:45:12.938Z,16.66
2022-08-27T20:47:42.153Z,16.69
2022-08-27T20:50:09.861Z,16.66
2022-08-27T20:52:39.337Z,16.64
2022-08-27T20:55:06.564Z,16.63
2022-08-27T20:57:33.316Z,16.64
2022-08-27T21:00:19.163Z,16.62
2022-08-27T21:02:46.934Z,16.62
2022-08-27T21:05:17.101Z,16.62
2022-08-27T21:07:45.961Z,16.62
2022-08-27T21:10:15.758Z,16.56
2022-08-27T21:12:42.384Z,16.57
2022-08-27T21:15:09.820Z,16.58
2022-08-27T21:17:36.846Z,16.57
2022-08-27T21:20:09.454Z,16.56
2022-08-27T21:22:36.061Z,16.56
2022-08-27T21:25:02.786Z,16.56
2022-08-27T21:27:29.461Z,16.56
2022-08-27T21:29:56.533Z,16.56
2022-08-27T21:32:23.216Z,16.55
2022-08-27T21:34:50.553Z,16.54
2022-08-27T21:37:18.333Z,16.54
2022-08-27T21:39:45.296Z,16.45
2022-08-27T21:42:13.083Z,16.48
2022-08-27T21:44:39.791Z,16.49
2022-08-27T21:47:06.651Z,16.50
2022-08-27T21:49:33.681Z,16.49
2022-08-27T21:52:05.956Z,16.51
2022-08-27T21:54:36.821Z,16.54
2022-08-27T21:57:04.510Z,16.52
2022-08-27T21:59:52.374Z,16.41
2022-08-27T22:02:39.191Z,16.43
2022-08-27T22:05:06.449Z,16.39
2022-08-27T22:07:33.093Z,16.35
2022-08-27T22:09:59.966Z,16.37
2022-08-27T22:12:26.541Z,16.36
2022-08-27T22:14:53.216Z,16.31
2022-08-27T22:17:19.863Z,16.29
2022-08-27T22:19:46.447Z,16.27
2022-08-27T22:22:13.293Z,16.26
2022-08-27T22:24:39.888Z,16.29
2022-08-27T22:27:06.545Z,16.29
2022-08-27T22:29:35.158Z,16.31
2022-08-27T22:32:10.553Z,16.36
2022-08-27T22:34:37.224Z,16.38
2022-08-27T22:37:04.304Z,16.39
2022-08-27T22:39:31.111Z,16.44
2022-08-27T22:41:58.125Z,16.44
2022-08-27T22:44:29.246Z,16.47
2022-08-27T22:46:57.156Z,16.51
2022-08-27T22:49:24.201Z,16.52
2022-08-27T22:51:50.860Z,16.50
2022-08-27T22:54:20.032Z,16.52
2022-08-27T22:56:46.720Z,16.54
2022-08-27T22:59:13.508Z,16.57
2022-08-27T23:01:40.705Z,16.56
2022-08-27T23:04:07.576Z,16.56
2022-08-27T23:06:34.959Z,16.61
2022-08-27T23:09:01.865Z,16.60
2022-08-27T23:11:31.934Z,16.58
2022-08-27T23:13:59.574Z,16.58
2022-08-27T23:16:27.091Z,16.54
2022-08-27T23:18:54.288Z,16.50
2022-08-27T23:21:20.985Z,16.51
2022-08-27T23:23:47.628Z,16.54
2022-08-27T23:26:32.941Z,16.55
2022-08-27T23:28:59.600Z,16.60
2022-08-27T23:31:26.541Z,16.60
2022-08-27T23:33:56.057Z,16.59
2022-08-27T23:36:23.385Z,16.64
2022-08-27T23:38:50.102Z,16.62
2022-08-27T23:41:16.958Z,16.64
2022-08-27T23:43:44.262Z,16.66
2022-08-27T23:46:12.014Z,16.63
2022-08-27T23:48:39.529Z,16.61
2022-08-27T23:51:07.687Z,16.59
2022-08-27T23:53:34.460Z,16.57
2022-08-27T23:56:01.239Z,16.57
2022-08-27T23:58:27.943Z,16.62
